Time;durP1;ratioP1;P1;durP2;ratioP2;P2;SDS_P1;SDS_P2;PMS_P1;PMS_P2;Temp;Humidity;BMP_temperature;BMP_pressure;BME280_temperature;BME280_humidity;BME280_pressure;Samples;Min_cycle;Max_cycle;Signal;HPM_P1;HPM_P2
2021/12/23 16:39:18;;;;;;;10.00;4.33;;;1.40;99.90;;;;;;5101473;27;20619;-65
2021/12/23 16:41:45;;;;;;;16.30;4.90;;;1.50;99.90;;;;;;5101945;28;20431;-63
2021/12/23 16:44:12;;;;;;;8.87;4.73;;;1.60;99.90;;;;;;5101249;28;20441;-64
2021/12/23 16:46:38;;;;;;;9.30;4.87;;;1.60;99.90;;;;;;5102068;28;20443;-62
2021/12/23 16:49:05;;;;;;;9.73;4.40;;;1.70;99.90;;;;;;5102215;28;20747;-64
2021/12/23 16:51:32;;;;;;;8.57;4.20;;;1.70;99.90;;;;;;5101014;28;20441;-64
2021/12/23 16:53:59;;;;;;;13.33;4.67;;;1.70;99.90;;;;;;5100876;28;20529;-63
2021/12/23 16:59:11;;;;;;;7.03;3.60;;;1.90;99.90;;;;;;5080528;28;20664;-63
2021/12/23 17:01:38;;;;;;;7.73;4.70;;;1.90;99.90;;;;;;5101665;28;20274;-63
2021/12/23 17:04:05;;;;;;;7.80;4.40;;;2.00;99.90;;;;;;5101578;28;20223;-64
2021/12/23 17:06:32;;;;;;;9.57;4.03;;;2.00;99.90;;;;;;5098447;28;20567;-63
2021/12/23 17:08:59;;;;;;;10.50;4.80;;;2.00;99.90;;;;;;5100728;28;20781;-63
2021/12/23 17:11:27;;;;;;;11.63;4.77;;;2.10;99.90;;;;;;5100751;28;20193;-63
2021/12/23 17:13:54;;;;;;;9.80;4.13;;;2.20;99.90;;;;;;5101103;28;20188;-64
2021/12/23 17:16:21;;;;;;;7.57;3.67;;;2.30;99.90;;;;;;5101226;28;20280;-64
2021/12/23 17:18:56;;;;;;;8.60;4.00;;;2.40;99.90;;;;;;5100937;28;20247;-64
2021/12/23 17:24:08;;;;;;;7.30;3.97;;;2.50;99.90;;;;;;5098902;28;20230;-64
2021/12/23 17:26:36;;;;;;;10.23;3.60;;;2.60;99.90;;;;;;5099382;28;20568;-63
2021/12/23 17:29:03;;;;;;;5.73;3.43;;;2.60;99.90;;;;;;5100515;28;20307;-63
2021/12/23 17:31:30;;;;;;;10.03;3.23;;;2.70;99.90;;;;;;5100731;28;20233;-63
2021/12/23 17:33:57;;;;;;;6.17;3.80;;;2.70;99.90;;;;;;5100786;28;20302;-63
2021/12/23 17:36:24;;;;;;;7.27;4.40;;;2.70;99.90;;;;;;5100128;28;20200;-63
2021/12/23 17:38:51;;;;;;;8.13;3.10;;;2.70;99.90;;;;;;5099595;28;20296;-62
2021/12/23 17:41:19;;;;;;;7.97;4.63;;;2.80;99.90;;;;;;5101046;28;20460;-64
2021/12/23 17:43:49;;;;;;;9.23;4.57;;;2.80;99.90;;;;;;5101525;28;20318;-64
2021/12/23 17:46:16;;;;;;;11.17;4.10;;;2.80;99.90;;;;;;5100828;28;20742;-64
2021/12/23 17:48:43;;;;;;;8.83;4.87;;;2.90;99.90;;;;;;5097244;28;20284;-64
2021/12/23 17:51:10;;;;;;;9.07;4.03;;;3.00;99.90;;;;;;5086669;28;20205;-64
2021/12/23 17:53:38;;;;;;;6.30;3.63;;;3.00;99.90;;;;;;5086628;28;20225;-64
2021/12/23 17:56:07;;;;;;;6.67;3.37;;;3.00;99.90;;;;;;5087561;28;20223;-64
2021/12/23 17:58:34;;;;;;;6.00;3.77;;;3.00;99.90;;;;;;5087171;28;20220;-65
2021/12/23 18:01:03;;;;;;;7.43;3.83;;;3.10;99.90;;;;;;5087294;28;20212;-64
2021/12/23 18:03:30;;;;;;;6.40;3.70;;;3.10;99.90;;;;;;5087428;28;20264;-64
2021/12/23 18:05:57;;;;;;;6.03;3.30;;;3.20;99.90;;;;;;5086805;28;20215;-65
2021/12/23 18:08:24;;;;;;;6.43;3.50;;;3.20;99.90;;;;;;5086535;28;20280;-65
2021/12/23 18:10:52;;;;;;;7.23;3.50;;;3.30;99.90;;;;;;5086900;28;20205;-64
2021/12/23 18:13:20;;;;;;;6.20;3.40;;;3.30;99.90;;;;;;5084025;28;20189;-64
2021/12/23 18:15:47;;;;;;;8.27;4.10;;;3.30;99.90;;;;;;5086894;28;20254;-64
2021/12/23 18:18:16;;;;;;;13.17;5.83;;;3.30;99.90;;;;;;5086557;28;20280;-64
2021/12/23 18:20:43;;;;;;;8.13;4.77;;;3.40;99.90;;;;;;5086922;28;20201;-62
2021/12/23 18:23:13;;;;;;;9.80;5.20;;;3.40;99.90;;;;;;5086480;28;20188;-65
2021/12/23 18:25:41;;;;;;;6.63;3.77;;;3.40;99.90;;;;;;5086167;28;20225;-64
2021/12/23 18:28:11;;;;;;;5.53;3.47;;;3.40;99.90;;;;;;5086465;28;20261;-64
2021/12/23 18:30:39;;;;;;;6.53;3.63;;;3.40;99.90;;;;;;5086346;28;20208;-64
2021/12/23 18:33:08;;;;;;;6.30;3.63;;;3.40;99.90;;;;;;5083613;28;20205;-64
2021/12/23 18:35:40;;;;;;;7.57;3.70;;;3.40;99.90;;;;;;5086047;28;20189;-64
2021/12/23 18:38:12;;;;;;;6.80;3.33;;;3.40;99.90;;;;;;5085376;28;20291;-63
2021/12/23 18:40:45;;;;;;;10.87;5.27;;;3.40;99.90;;;;;;5086191;28;20211;-63
2021/12/23 18:43:13;;;;;;;10.70;4.77;;;3.40;99.90;;;;;;5082852;28;20205;-64
2021/12/23 18:45:40;;;;;;;3.57;2.77;;;3.40;99.90;;;;;;5086290;28;20221;-64
2021/12/23 18:48:07;;;;;;;6.63;3.90;;;3.40;99.90;;;;;;5086082;28;20231;-64
2021/12/23 18:50:36;;;;;;;8.47;3.63;;;3.40;99.90;;;;;;5085934;28;20228;-63
2021/12/23 18:53:05;;;;;;;10.33;6.03;;;3.40;99.90;;;;;;5085185;28;20240;-63
2021/12/23 18:55:33;;;;;;;4.93;3.60;;;3.40;99.90;;;;;;5085680;28;20203;-63
2021/12/23 18:58:00;;;;;;;7.40;3.40;;;3.30;99.90;;;;;;5085768;28;20235;-63
2021/12/23 19:00:41;;;;;;;6.50;4.03;;;3.30;99.90;;;;;;5085142;28;20193;-62
2021/12/23 19:03:14;;;;;;;6.37;3.30;;;3.30;99.90;;;;;;5083410;28;20185;-63
2021/12/23 19:06:01;;;;;;;5.37;2.97;;;3.30;99.90;;;;;;5084777;28;20195;-64
2021/12/23 19:08:27;;;;;;;7.23;3.63;;;3.30;99.90;;;;;;5082150;28;20261;-64
2021/12/23 19:10:54;;;;;;;5.20;3.07;;;3.30;99.90;;;;;;5085142;28;20260;-64
2021/12/23 19:13:21;;;;;;;6.17;2.70;;;3.40;99.90;;;;;;5085537;28;20265;-64
2021/12/23 19:15:48;;;;;;;7.27;3.20;;;3.40;99.90;;;;;;5084401;28;20228;-63
2021/12/23 19:18:15;;;;;;;8.50;3.20;;;3.50;99.90;;;;;;5083738;28;20223;-64
2021/12/23 19:20:43;;;;;;;9.17;3.33;;;3.50;99.90;;;;;;5082367;28;20197;-62
2021/12/23 19:23:10;;;;;;;5.60;3.47;;;3.60;99.90;;;;;;5081892;28;20640;-63
2021/12/23 19:25:37;;;;;;;4.73;2.80;;;3.70;99.90;;;;;;5083450;28;20261;-63
2021/12/23 19:28:04;;;;;;;5.53;2.93;;;3.70;99.90;;;;;;5083542;28;20270;-63
2021/12/23 19:30:31;;;;;;;5.40;3.30;;;3.70;99.90;;;;;;5083859;28;20225;-64
2021/12/23 19:32:58;;;;;;;7.43;3.13;;;3.80;99.90;;;;;;5083303;28;20202;-63
2021/12/23 19:35:25;;;;;;;6.20;3.63;;;3.80;99.90;;;;;;5083014;28;20201;-63
2021/12/23 19:37:53;;;;;;;5.80;3.30;;;3.80;99.90;;;;;;5081514;28;20239;-63
2021/12/23 19:40:20;;;;;;;5.17;2.77;;;3.80;99.90;;;;;;5081655;28;20193;-62
2021/12/23 19:42:47;;;;;;;4.23;2.47;;;3.80;99.90;;;;;;5082627;28;20300;-63
2021/12/23 19:45:14;;;;;;;4.77;3.27;;;3.90;99.90;;;;;;5082601;28;20261;-63
2021/12/23 19:47:41;;;;;;;6.40;3.27;;;3.90;99.90;;;;;;5082990;28;20265;-62
2021/12/23 19:50:12;;;;;;;7.93;2.93;;;3.90;99.90;;;;;;5083138;28;20201;-63
2021/12/23 19:52:41;;;;;;;7.67;3.07;;;3.90;99.90;;;;;;5081042;28;20689;-61
2021/12/23 19:55:12;;;;;;;5.97;3.50;;;3.90;99.90;;;;;;5082687;28;20223;-63
2021/12/23 19:57:39;;;;;;;12.60;3.83;;;3.90;99.90;;;;;;5080622;28;20669;-62
2021/12/23 20:00:09;;;;;;;7.00;4.33;;;3.90;99.90;;;;;;5081116;28;20316;-63
2021/12/23 20:02:36;;;;;;;6.90;3.30;;;3.80;99.90;;;;;;5081313;28;20197;-63
2021/12/23 20:05:04;;;;;;;11.43;4.27;;;3.80;99.90;;;;;;5081519;28;20205;-63
2021/12/23 20:07:30;;;;;;;9.13;4.63;;;3.80;99.90;;;;;;5081043;28;20299;-61
2021/12/23 20:09:58;;;;;;;5.27;3.70;;;3.70;99.90;;;;;;5079639;28;20201;-62
2021/12/23 20:12:28;;;;;;;9.10;3.87;;;3.70;99.90;;;;;;5080877;28;20661;-63
2021/12/23 20:14:55;;;;;;;6.90;3.93;;;3.70;99.90;;;;;;5081084;28;20192;-63
2021/12/23 20:17:22;;;;;;;5.43;3.23;;;3.70;99.90;;;;;;5081368;28;20232;-62
2021/12/23 20:19:49;;;;;;;6.27;3.57;;;3.80;99.90;;;;;;5081036;28;20217;-63
2021/12/23 20:22:16;;;;;;;6.30;3.53;;;3.80;99.90;;;;;;5080865;28;20201;-60
2021/12/23 20:24:43;;;;;;;6.53;2.37;;;3.90;99.90;;;;;;5080738;28;20950;-61
2021/12/23 20:27:10;;;;;;;4.80;2.80;;;3.90;99.90;;;;;;5079825;28;20208;-63
2021/12/23 20:29:39;;;;;;;8.17;2.87;;;3.90;99.90;;;;;;5080249;28;20253;-62
2021/12/23 20:32:07;;;;;;;3.73;2.63;;;4.10;99.90;;;;;;5080968;28;20198;-63
2021/12/23 20:34:35;;;;;;;4.37;2.63;;;4.10;99.90;;;;;;5083015;28;20263;-63
2021/12/23 20:37:04;;;;;;;4.20;2.17;;;4.10;99.90;;;;;;5083043;28;20209;-64
2021/12/23 20:39:31;;;;;;;5.77;2.77;;;4.20;99.90;;;;;;5083423;28;20203;-63
2021/12/23 20:41:58;;;;;;;5.07;2.80;;;4.20;99.90;;;;;;5080505;28;20201;-64
2021/12/23 20:44:26;;;;;;;5.73;2.97;;;4.20;99.90;;;;;;5082836;28;20200;-64
2021/12/23 20:46:54;;;;;;;5.77;3.50;;;4.20;99.90;;;;;;5082104;28;20211;-62
2021/12/23 20:49:23;;;;;;;4.33;3.00;;;4.20;99.90;;;;;;5081954;28;20710;-63
2021/12/23 20:51:53;;;;;;;4.67;2.47;;;4.20;99.90;;;;;;5081825;28;20201;-63
2021/12/23 20:54:22;;;;;;;2.67;2.20;;;4.20;99.90;;;;;;5081675;28;20195;-61
2021/12/23 20:56:51;;;;;;;3.90;2.37;;;4.20;99.90;;;;;;5082518;28;20262;-63
2021/12/23 20:59:19;;;;;;;4.07;2.77;;;4.10;99.90;;;;;;5081762;28;20219;-63
2021/12/23 21:01:46;;;;;;;6.43;4.17;;;4.10;99.90;;;;;;5082363;28;20220;-64
2021/12/23 21:04:14;;;;;;;8.37;3.83;;;4.00;99.90;;;;;;5082665;28;20284;-63
2021/12/23 21:06:41;;;;;;;7.83;3.23;;;4.10;99.90;;;;;;5079974;28;20542;-63
2021/12/23 21:09:08;;;;;;;7.27;2.67;;;4.20;99.90;;;;;;5081984;28;20276;-64
2021/12/23 21:11:40;;;;;;;4.67;2.57;;;4.30;99.90;;;;;;5081130;28;20268;-63
2021/12/23 21:14:08;;;;;;;5.40;2.70;;;4.40;99.90;;;;;;5080750;28;20272;-64
2021/12/23 21:16:35;;;;;;;4.57;2.77;;;4.50;99.90;;;;;;5084098;28;20212;-64
2021/12/23 21:19:02;;;;;;;4.37;2.70;;;4.60;99.90;;;;;;5080886;28;20358;-64
2021/12/23 21:21:31;;;;;;;4.03;2.60;;;4.60;99.90;;;;;;5083396;28;20593;-64
2021/12/23 21:23:58;;;;;;;5.77;3.23;;;4.70;99.90;;;;;;5082572;28;20292;-63
2021/12/23 21:26:26;;;;;;;5.47;2.73;;;4.70;99.90;;;;;;5087758;28;20211;-64
2021/12/23 21:28:55;;;;;;;4.47;2.90;;;4.70;99.90;;;;;;5086616;28;20288;-64
2021/12/23 21:31:23;;;;;;;6.50;2.03;;;4.70;99.90;;;;;;5087399;28;20671;-64
2021/12/23 21:33:51;;;;;;;4.77;2.43;;;4.80;99.90;;;;;;5087388;28;20205;-63
2021/12/23 21:36:18;;;;;;;3.77;2.70;;;4.80;99.90;;;;;;5087168;28;20200;-64
2021/12/23 21:38:47;;;;;;;3.50;2.77;;;4.80;99.90;;;;;;5086431;28;20228;-64
2021/12/23 21:41:16;;;;;;;2.43;2.03;;;4.80;99.90;;;;;;5087429;28;20635;-63
2021/12/23 21:43:44;;;;;;;4.93;2.43;;;4.80;99.90;;;;;;5087453;28;20559;-64
2021/12/23 21:46:10;;;;;;;4.87;3.23;;;4.80;99.90;;;;;;5087489;28;20267;-63
2021/12/23 21:48:37;;;;;;;4.97;2.67;;;4.80;99.90;;;;;;5087146;28;20223;-64
2021/12/23 21:51:09;;;;;;;5.27;3.40;;;4.80;99.90;;;;;;5085545;28;20257;-64
2021/12/23 21:53:36;;;;;;;3.33;2.13;;;4.90;99.90;;;;;;5084987;28;20186;-64
2021/12/23 21:56:05;;;;;;;4.77;2.77;;;5.00;99.90;;;;;;5086041;28;20197;-64
2021/12/23 21:58:32;;;;;;;4.33;2.53;;;5.00;99.90;;;;;;5083322;28;20265;-64
2021/12/23 22:00:59;;;;;;;5.60;2.87;;;5.00;99.90;;;;;;5085861;28;20193;-63
2021/12/23 22:03:26;;;;;;;3.67;2.27;;;5.00;99.90;;;;;;5085822;28;20265;-63
2021/12/23 22:05:54;;;;;;;4.70;2.70;;;5.00;99.90;;;;;;5085536;28;20224;-63
2021/12/23 22:08:21;;;;;;;3.83;2.10;;;5.00;99.90;;;;;;5085117;28;20208;-64
2021/12/23 22:10:48;;;;;;;4.20;2.23;;;5.00;99.90;;;;;;5085891;28;20225;-64
2021/12/23 22:13:16;;;;;;;5.57;2.17;;;5.00;99.90;;;;;;5085520;28;20288;-64
2021/12/23 22:15:44;;;;;;;4.10;2.60;;;5.00;99.90;;;;;;5085948;28;20221;-64
2021/12/23 22:18:12;;;;;;;4.07;3.20;;;5.10;99.90;;;;;;5082873;28;20194;-64
2021/12/23 22:20:39;;;;;;;4.17;2.37;;;5.10;99.90;;;;;;5085980;28;20304;-64
2021/12/23 22:23:07;;;;;;;3.53;2.40;;;5.20;99.90;;;;;;5084969;28;20265;-64
2021/12/23 22:25:35;;;;;;;4.90;2.10;;;5.20;99.90;;;;;;5085666;28;20216;-64
2021/12/23 22:28:03;;;;;;;3.33;2.10;;;5.30;99.90;;;;;;5085823;28;20215;-62
2021/12/23 22:30:32;;;;;;;2.77;2.20;;;5.40;99.90;;;;;;5083389;28;20190;-63
2021/12/23 22:33:00;;;;;;;5.53;1.90;;;5.40;99.90;;;;;;5085448;28;20254;-63
2021/12/23 22:35:28;;;;;;;6.10;2.30;;;5.50;99.90;;;;;;5085500;28;20629;-64
2021/12/23 22:37:55;;;;;;;2.80;1.97;;;5.40;99.90;;;;;;5083626;28;20288;-61
2021/12/23 22:40:22;;;;;;;2.67;2.03;;;5.50;99.90;;;;;;5085533;28;20508;-61
2021/12/23 22:42:49;;;;;;;3.13;2.10;;;5.70;99.90;;;;;;5084528;28;20268;-60
2021/12/23 22:45:18;;;;;;;2.73;1.93;;;5.70;99.90;;;;;;5085330;28;20194;-62
2021/12/23 22:47:46;;;;;;;1.97;1.53;;;5.80;99.90;;;;;;5084997;28;20280;-64
2021/12/23 22:50:13;;;;;;;2.57;1.97;;;5.80;99.90;;;;;;5082962;28;20217;-64
2021/12/23 22:52:41;;;;;;;5.80;2.37;;;5.80;99.90;;;;;;5084166;28;20244;-61
2021/12/23 22:55:10;;;;;;;3.60;2.03;;;5.90;99.90;;;;;;5084368;28;20280;-63
2021/12/23 22:57:37;;;;;;;2.40;2.10;;;5.80;99.90;;;;;;5084846;28;20193;-64
2021/12/23 23:00:08;;;;;;;4.27;1.93;;;5.90;99.90;;;;;;5084650;28;20235;-64
2021/12/23 23:02:35;;;;;;;3.80;2.17;;;5.90;99.90;;;;;;5082283;28;20190;-63
2021/12/23 23:05:04;;;;;;;3.70;2.37;;;5.90;99.90;;;;;;5083445;28;20288;-64
2021/12/23 23:07:31;;;;;;;2.93;1.87;;;6.00;99.90;;;;;;5084926;28;20201;-64
2021/12/23 23:09:58;;;;;;;2.77;1.80;;;6.00;99.90;;;;;;5082528;28;20192;-64
2021/12/23 23:12:30;;;;;;;5.67;2.77;;;6.10;99.90;;;;;;5085553;28;20321;-63
2021/12/23 23:15:09;;;;;;;2.33;1.70;;;6.20;99.90;;;;;;5083077;28;20249;-64
2021/12/23 23:17:36;;;;;;;3.40;2.20;;;6.20;99.90;;;;;;5085643;28;20216;-64
2021/12/23 23:20:06;;;;;;;2.23;1.93;;;6.30;99.90;;;;;;5085449;28;20729;-64
2021/12/23 23:22:32;;;;;;;3.80;2.07;;;6.30;99.90;;;;;;5084463;28;20244;-64
2021/12/23 23:25:03;;;;;;;2.73;1.77;;;6.30;99.90;;;;;;5084625;28;20279;-64
2021/12/23 23:27:35;;;;;;;4.07;2.40;;;6.30;99.90;;;;;;5085063;28;20227;-63
2021/12/23 23:35:38;;;;;;;3.40;2.23;;;6.30;99.90;;;;;;5083196;28;20192;-64
2021/12/23 23:41:02;;;;;;;3.13;1.90;;;6.40;99.90;;;;;;5071646;28;20216;-64
2021/12/23 23:43:31;;;;;;;5.90;2.70;;;6.40;99.90;;;;;;5085578;28;20189;-65
2021/12/23 23:46:07;;;;;;;5.90;2.60;;;6.40;99.90;;;;;;5085656;28;20216;-64
2021/12/23 23:48:34;;;;;;;5.37;1.90;;;6.40;99.90;;;;;;5084736;28;20745;-64
2021/12/23 23:51:03;;;;;;;2.07;1.47;;;6.40;99.90;;;;;;5084923;28;20197;-64
2021/12/23 23:53:30;;;;;;;3.63;1.70;;;6.40;99.90;;;;;;5084247;28;20228;-64
2021/12/23 23:56:02;;;;;;;2.23;1.80;;;6.40;99.90;;;;;;5085569;28;20250;-64
2021/12/23 23:58:30;;;;;;;6.00;2.33;;;6.30;99.90;;;;;;5085151;28;20204;-65
